Meath Environmental Platform

Observations for Trim Market St

Time AQI Temp °C Hum % Pres Pa CO μg/m³ H₂S μg/m³ NO μg/m³ NO₂ μg/m³ O₃ μg/m³ SO₂ μg/m³ PM1 μg/m³ PM2.5 μg/m³ PM10 μg/m³
Saturday 22 August 2026
11:38 2 22.2 43 65,215 0 0 1.11 20.05 73.67 0 0 2.21 2.43
11:37 2 22.3 43 65,228 0 0 1.07 13.41 93.6 0 0 2.21 2.43
11:36 2 22.3 43 65,220 0.04 0 1.08 11.87 70.04 0 0 2.21 2.43
11:35 2 22.3 43 65,205 0.22 0 1.15 10.18 86.67 0 0 2.21 2.43
11:34 2 22.3 43 65,215 0 0 1.23 10.03 91.44 0 0 2.74 3.01
11:33 2 22.4 43 65,230 0 0 1.25 11.35 70.91 0 0 2.74 3.01
11:32 2 22.4 43 65,244 0 0 1.54 13.51 90.92 0 0 2.22 2.45
11:31 2 22.4 43 65,234 0 0 1.38 11.75 76.28 0 0 2.23 2.46
11:30 2 22.4 43 65,224 0 0 1.31 12.79 66.17 0 0 2.23 2.45
11:28 2 22.5 43 65,211 0.02 0 1.37 18.35 64.28 0 0 3.29 3.62
11:27 2 22.5 43 65,218 0 0 1.31 22.91 79.37 0 0 2.77 3.04
11:26 2 22.5 43 65,234 0 0 1.43 14.62 104.08 0 0 2.77 3.05
11:25 2 22.6 43 65,254 0 0 1.6 12.34 70.88 0 0 2.77 3.04
11:23 2 22.7 43 65,282 0 0 1.39 12.69 69.08 0 0.71 3.29 3.62
11:22 2 22.7 43 65,313 0 0 1.24 9.97 84.52 0 0 2.24 2.47
11:21 2 22.8 43 65,331 0.79 0.11 1.25 13.89 112.03 0 0 3.29 3.62
11:20 2 22.9 43 65,350 0 0 1.23 8.48 89.02 0 0 2.77 3.58
11:18 2 23 42 65,380 0 0 1.34 8.73 73.07 0 0 2.26 2.49
11:15 2 23 42 65,412 0 0 1.52 16.69 94.77 0 0 2.82 3.1
11:13 2 23.1 41 65,423 0 0 1.56 12.88 67.06 0 0 2.83 3.11